sensor_id;sensor_type;location;lat;lon;timestamp;P1;durP1;ratioP1;P2;durP2;ratioP2
65172;SDS011;69059;52.218;5.172;2023-06-26T00:00:42;5.90;;;5.28;;
65172;SDS011;69059;52.218;5.172;2023-06-26T00:03:10;5.00;;;4.50;;
65172;SDS011;69059;52.218;5.172;2023-06-26T00:05:41;5.63;;;5.03;;
65172;SDS011;69059;52.218;5.172;2023-06-26T00:08:09;6.47;;;5.40;;
65172;SDS011;69059;52.218;5.172;2023-06-26T00:10:37;5.95;;;5.20;;
65172;SDS011;69059;52.218;5.172;2023-06-26T00:13:06;6.03;;;5.43;;
65172;SDS011;69059;52.218;5.172;2023-06-26T00:15:33;6.55;;;5.65;;
65172;SDS011;69059;52.218;5.172;2023-06-26T00:20:31;5.82;;;5.18;;
65172;SDS011;69059;52.218;5.172;2023-06-26T00:23:00;7.53;;;5.57;;
65172;SDS011;69059;52.218;5.172;2023-06-26T00:25:30;6.18;;;4.95;;
65172;SDS011;69059;52.218;5.172;2023-06-26T00:27:58;5.38;;;4.88;;
65172;SDS011;69059;52.218;5.172;2023-06-26T00:30:25;7.15;;;5.40;;
65172;SDS011;69059;52.218;5.172;2023-06-26T00:32:53;7.15;;;5.03;;
65172;SDS011;69059;52.218;5.172;2023-06-26T00:35:22;8.77;;;5.40;;
65172;SDS011;69059;52.218;5.172;2023-06-26T00:37:50;6.35;;;5.32;;
65172;SDS011;69059;52.218;5.172;2023-06-26T00:40:18;5.65;;;4.85;;
65172;SDS011;69059;52.218;5.172;2023-06-26T00:42:46;6.95;;;5.32;;
65172;SDS011;69059;52.218;5.172;2023-06-26T00:45:14;5.85;;;5.30;;
65172;SDS011;69059;52.218;5.172;2023-06-26T00:47:47;6.53;;;5.25;;
65172;SDS011;69059;52.218;5.172;2023-06-26T00:50:16;6.00;;;5.38;;
65172;SDS011;69059;52.218;5.172;2023-06-26T00:52:45;6.22;;;4.82;;
65172;SDS011;69059;52.218;5.172;2023-06-26T00:55:13;7.13;;;5.65;;
65172;SDS011;69059;52.218;5.172;2023-06-26T00:57:41;6.70;;;5.30;;
65172;SDS011;69059;52.218;5.172;2023-06-26T01:00:12;9.10;;;5.72;;
65172;SDS011;69059;52.218;5.172;2023-06-26T01:02:41;7.10;;;5.60;;
65172;SDS011;69059;52.218;5.172;2023-06-26T01:05:09;6.55;;;5.43;;
65172;SDS011;69059;52.218;5.172;2023-06-26T01:07:39;6.63;;;5.60;;
65172;SDS011;69059;52.218;5.172;2023-06-26T01:12:36;8.38;;;5.20;;
65172;SDS011;69059;52.218;5.172;2023-06-26T01:15:05;6.22;;;5.30;;
65172;SDS011;69059;52.218;5.172;2023-06-26T01:17:33;7.15;;;5.40;;
65172;SDS011;69059;52.218;5.172;2023-06-26T01:20:05;8.65;;;5.43;;
65172;SDS011;69059;52.218;5.172;2023-06-26T01:22:36;8.98;;;5.97;;
65172;SDS011;69059;52.218;5.172;2023-06-26T01:25:15;8.43;;;5.68;;
65172;SDS011;69059;52.218;5.172;2023-06-26T01:27:50;6.68;;;5.53;;
65172;SDS011;69059;52.218;5.172;2023-06-26T01:30:21;7.20;;;5.43;;
65172;SDS011;69059;52.218;5.172;2023-06-26T01:32:49;10.90;;;5.78;;
65172;SDS011;69059;52.218;5.172;2023-06-26T01:35:17;5.95;;;5.00;;
65172;SDS011;69059;52.218;5.172;2023-06-26T01:40:13;9.40;;;5.22;;
65172;SDS011;69059;52.218;5.172;2023-06-26T01:42:41;7.57;;;4.55;;
65172;SDS011;69059;52.218;5.172;2023-06-26T01:45:12;5.55;;;4.25;;
65172;SDS011;69059;52.218;5.172;2023-06-26T01:47:47;10.30;;;4.72;;
65172;SDS011;69059;52.218;5.172;2023-06-26T01:50:18;7.75;;;4.30;;
65172;SDS011;69059;52.218;5.172;2023-06-26T01:52:53;8.23;;;4.38;;
65172;SDS011;69059;52.218;5.172;2023-06-26T01:55:28;6.80;;;4.82;;
65172;SDS011;69059;52.218;5.172;2023-06-26T01:58:02;9.85;;;4.43;;
65172;SDS011;69059;52.218;5.172;2023-06-26T02:00:32;7.15;;;4.30;;
65172;SDS011;69059;52.218;5.172;2023-06-26T02:03:01;6.00;;;3.95;;
65172;SDS011;69059;52.218;5.172;2023-06-26T02:07:57;11.20;;;4.82;;
65172;SDS011;69059;52.218;5.172;2023-06-26T02:10:27;8.77;;;4.30;;
65172;SDS011;69059;52.218;5.172;2023-06-26T02:12:55;8.07;;;4.60;;
65172;SDS011;69059;52.218;5.172;2023-06-26T02:15:23;9.18;;;4.13;;
65172;SDS011;69059;52.218;5.172;2023-06-26T02:17:52;9.57;;;3.92;;
65172;SDS011;69059;52.218;5.172;2023-06-26T02:20:20;7.20;;;4.13;;
65172;SDS011;69059;52.218;5.172;2023-06-26T02:22:47;7.72;;;4.65;;
65172;SDS011;69059;52.218;5.172;2023-06-26T02:25:15;7.72;;;4.15;;
65172;SDS011;69059;52.218;5.172;2023-06-26T02:27:44;11.75;;;4.30;;
65172;SDS011;69059;52.218;5.172;2023-06-26T02:30:12;9.70;;;4.18;;
65172;SDS011;69059;52.218;5.172;2023-06-26T02:32:40;11.05;;;5.03;;
65172;SDS011;69059;52.218;5.172;2023-06-26T02:35:09;9.55;;;4.40;;
65172;SDS011;69059;52.218;5.172;2023-06-26T02:37:37;9.60;;;4.13;;
65172;SDS011;69059;52.218;5.172;2023-06-26T02:40:05;11.60;;;4.57;;
65172;SDS011;69059;52.218;5.172;2023-06-26T02:42:34;11.32;;;5.03;;
65172;SDS011;69059;52.218;5.172;2023-06-26T02:45:02;8.45;;;4.20;;
65172;SDS011;69059;52.218;5.172;2023-06-26T02:47:30;12.07;;;4.65;;
65172;SDS011;69059;52.218;5.172;2023-06-26T02:49:58;11.52;;;4.88;;
65172;SDS011;69059;52.218;5.172;2023-06-26T02:52:27;10.85;;;4.90;;
65172;SDS011;69059;52.218;5.172;2023-06-26T02:54:55;10.32;;;4.88;;
65172;SDS011;69059;52.218;5.172;2023-06-26T02:57:23;19.05;;;5.68;;
65172;SDS011;69059;52.218;5.172;2023-06-26T02:59:51;10.65;;;4.97;;
65172;SDS011;69059;52.218;5.172;2023-06-26T03:02:18;12.35;;;4.90;;
65172;SDS011;69059;52.218;5.172;2023-06-26T03:04:46;16.98;;;5.15;;
65172;SDS011;69059;52.218;5.172;2023-06-26T03:07:16;15.93;;;5.60;;
65172;SDS011;69059;52.218;5.172;2023-06-26T03:09:45;13.93;;;5.40;;
65172;SDS011;69059;52.218;5.172;2023-06-26T03:12:13;14.38;;;5.72;;
65172;SDS011;69059;52.218;5.172;2023-06-26T03:14:41;13.80;;;5.07;;
65172;SDS011;69059;52.218;5.172;2023-06-26T03:17:12;13.07;;;4.93;;
65172;SDS011;69059;52.218;5.172;2023-06-26T03:19:40;18.13;;;5.25;;
65172;SDS011;69059;52.218;5.172;2023-06-26T03:22:08;16.55;;;5.93;;
65172;SDS011;69059;52.218;5.172;2023-06-26T03:24:36;17.33;;;6.05;;
65172;SDS011;69059;52.218;5.172;2023-06-26T03:27:06;18.80;;;5.63;;
65172;SDS011;69059;52.218;5.172;2023-06-26T03:29:36;19.73;;;6.50;;
65172;SDS011;69059;52.218;5.172;2023-06-26T03:32:04;14.88;;;5.50;;
65172;SDS011;69059;52.218;5.172;2023-06-26T03:37:00;16.20;;;5.80;;
65172;SDS011;69059;52.218;5.172;2023-06-26T03:39:28;16.08;;;5.72;;
65172;SDS011;69059;52.218;5.172;2023-06-26T03:41:56;19.63;;;5.45;;
65172;SDS011;69059;52.218;5.172;2023-06-26T03:44:28;14.37;;;5.17;;
65172;SDS011;69059;52.218;5.172;2023-06-26T03:46:56;16.00;;;5.50;;
65172;SDS011;69059;52.218;5.172;2023-06-26T03:49:23;17.67;;;5.40;;
65172;SDS011;69059;52.218;5.172;2023-06-26T03:51:51;19.92;;;5.80;;
65172;SDS011;69059;52.218;5.172;2023-06-26T03:54:19;17.08;;;5.80;;
65172;SDS011;69059;52.218;5.172;2023-06-26T03:56:47;17.33;;;5.28;;
65172;SDS011;69059;52.218;5.172;2023-06-26T03:59:15;12.88;;;5.00;;
65172;SDS011;69059;52.218;5.172;2023-06-26T04:01:44;16.08;;;5.47;;
65172;SDS011;69059;52.218;5.172;2023-06-26T04:04:12;17.97;;;5.87;;
65172;SDS011;69059;52.218;5.172;2023-06-26T04:06:40;14.70;;;4.90;;
65172;SDS011;69059;52.218;5.172;2023-06-26T04:09:08;16.23;;;5.28;;
65172;SDS011;69059;52.218;5.172;2023-06-26T04:11:36;14.95;;;4.72;;
65172;SDS011;69059;52.218;5.172;2023-06-26T04:14:03;14.90;;;5.38;;
65172;SDS011;69059;52.218;5.172;2023-06-26T04:16:31;11.93;;;5.03;;
65172;SDS011;69059;52.218;5.172;2023-06-26T04:19:00;17.35;;;5.72;;
65172;SDS011;69059;52.218;5.172;2023-06-26T04:21:29;11.90;;;5.73;;
65172;SDS011;69059;52.218;5.172;2023-06-26T04:23:56;14.57;;;6.20;;
65172;SDS011;69059;52.218;5.172;2023-06-26T04:26:24;16.33;;;5.80;;
65172;SDS011;69059;52.218;5.172;2023-06-26T04:28:53;16.17;;;5.07;;
65172;SDS011;69059;52.218;5.172;2023-06-26T04:31:21;8.98;;;4.57;;
65172;SDS011;69059;52.218;5.172;2023-06-26T04:33:49;13.57;;;4.32;;
65172;SDS011;69059;52.218;5.172;2023-06-26T04:36:20;13.70;;;4.50;;
65172;SDS011;69059;52.218;5.172;2023-06-26T04:38:48;9.83;;;4.33;;
65172;SDS011;69059;52.218;5.172;2023-06-26T04:41:16;11.55;;;3.95;;
65172;SDS011;69059;52.218;5.172;2023-06-26T04:43:44;9.23;;;4.05;;
65172;SDS011;69059;52.218;5.172;2023-06-26T04:46:12;9.52;;;4.03;;
65172;SDS011;69059;52.218;5.172;2023-06-26T04:48:40;7.88;;;3.88;;
65172;SDS011;69059;52.218;5.172;2023-06-26T04:51:07;7.70;;;3.78;;
65172;SDS011;69059;52.218;5.172;2023-06-26T04:53:37;9.45;;;3.63;;
65172;SDS011;69059;52.218;5.172;2023-06-26T04:56:04;7.33;;;3.47;;
65172;SDS011;69059;52.218;5.172;2023-06-26T04:58:32;7.72;;;3.58;;
65172;SDS011;69059;52.218;5.172;2023-06-26T05:01:00;9.38;;;4.20;;
65172;SDS011;69059;52.218;5.172;2023-06-26T05:03:29;5.53;;;3.10;;
65172;SDS011;69059;52.218;5.172;2023-06-26T05:05:57;8.82;;;3.65;;
65172;SDS011;69059;52.218;5.172;2023-06-26T05:10:54;6.25;;;3.22;;
65172;SDS011;69059;52.218;5.172;2023-06-26T05:13:24;6.43;;;2.83;;
65172;SDS011;69059;52.218;5.172;2023-06-26T05:15:52;4.93;;;2.60;;
65172;SDS011;69059;52.218;5.172;2023-06-26T05:18:20;5.80;;;2.90;;
65172;SDS011;69059;52.218;5.172;2023-06-26T05:20:48;4.63;;;2.90;;
65172;SDS011;69059;52.218;5.172;2023-06-26T05:23:16;3.90;;;2.75;;
65172;SDS011;69059;52.218;5.172;2023-06-26T05:25:45;5.30;;;2.83;;
65172;SDS011;69059;52.218;5.172;2023-06-26T05:30:42;6.47;;;2.53;;
65172;SDS011;69059;52.218;5.172;2023-06-26T05:33:11;5.10;;;2.65;;
65172;SDS011;69059;52.218;5.172;2023-06-26T05:35:39;4.67;;;2.40;;
65172;SDS011;69059;52.218;5.172;2023-06-26T05:38:09;5.70;;;2.60;;
65172;SDS011;69059;52.218;5.172;2023-06-26T05:40:37;6.47;;;2.85;;
65172;SDS011;69059;52.218;5.172;2023-06-26T05:43:07;5.10;;;2.60;;
65172;SDS011;69059;52.218;5.172;2023-06-26T05:48:04;4.90;;;2.47;;
65172;SDS011;69059;52.218;5.172;2023-06-26T05:50:33;5.90;;;2.60;;
65172;SDS011;69059;52.218;5.172;2023-06-26T05:53:01;6.33;;;2.77;;
65172;SDS011;69059;52.218;5.172;2023-06-26T05:55:30;6.93;;;2.90;;
65172;SDS011;69059;52.218;5.172;2023-06-26T05:57:58;5.85;;;2.63;;
65172;SDS011;69059;52.218;5.172;2023-06-26T06:00:27;6.88;;;2.53;;
65172;SDS011;69059;52.218;5.172;2023-06-26T06:02:57;4.85;;;2.58;;
65172;SDS011;69059;52.218;5.172;2023-06-26T06:05:25;4.63;;;2.47;;
65172;SDS011;69059;52.218;5.172;2023-06-26T06:07:53;9.32;;;2.72;;
65172;SDS011;69059;52.218;5.172;2023-06-26T06:10:21;6.10;;;2.70;;
65172;SDS011;69059;52.218;5.172;2023-06-26T06:12:49;3.60;;;2.20;;
65172;SDS011;69059;52.218;5.172;2023-06-26T06:15:17;6.32;;;2.75;;
65172;SDS011;69059;52.218;5.172;2023-06-26T06:17:45;6.03;;;2.40;;
65172;SDS011;69059;52.218;5.172;2023-06-26T06:20:14;5.00;;;2.50;;
65172;SDS011;69059;52.218;5.172;2023-06-26T06:22:42;4.03;;;2.03;;
65172;SDS011;69059;52.218;5.172;2023-06-26T06:25:10;4.53;;;2.20;;
65172;SDS011;69059;52.218;5.172;2023-06-26T06:27:37;4.07;;;2.28;;
65172;SDS011;69059;52.218;5.172;2023-06-26T06:30:06;6.88;;;2.75;;
65172;SDS011;69059;52.218;5.172;2023-06-26T06:32:34;2.90;;;2.40;;
65172;SDS011;69059;52.218;5.172;2023-06-26T06:35:03;3.92;;;2.75;;
65172;SDS011;69059;52.218;5.172;2023-06-26T06:37:37;4.03;;;2.40;;
65172;SDS011;69059;52.218;5.172;2023-06-26T06:40:06;6.07;;;2.50;;
65172;SDS011;69059;52.218;5.172;2023-06-26T06:42:36;5.38;;;2.33;;
65172;SDS011;69059;52.218;5.172;2023-06-26T06:45:05;5.10;;;2.92;;
65172;SDS011;69059;52.218;5.172;2023-06-26T06:47:33;6.38;;;2.70;;
65172;SDS011;69059;52.218;5.172;2023-06-26T06:50:01;6.40;;;3.28;;
65172;SDS011;69059;52.218;5.172;2023-06-26T06:52:35;5.18;;;3.00;;
65172;SDS011;69059;52.218;5.172;2023-06-26T06:55:07;7.60;;;3.05;;
65172;SDS011;69059;52.218;5.172;2023-06-26T06:57:36;5.45;;;2.90;;
65172;SDS011;69059;52.218;5.172;2023-06-26T07:00:05;4.93;;;2.70;;
65172;SDS011;69059;52.218;5.172;2023-06-26T07:02:36;9.02;;;3.50;;
65172;SDS011;69059;52.218;5.172;2023-06-26T07:05:04;7.47;;;3.15;;
65172;SDS011;69059;52.218;5.172;2023-06-26T07:07:33;7.65;;;2.50;;
65172;SDS011;69059;52.218;5.172;2023-06-26T07:10:04;8.95;;;3.00;;
65172;SDS011;69059;52.218;5.172;2023-06-26T07:12:34;6.70;;;2.45;;
65172;SDS011;69059;52.218;5.172;2023-06-26T07:15:03;7.05;;;2.70;;
65172;SDS011;69059;52.218;5.172;2023-06-26T07:17:32;7.18;;;2.58;;
65172;SDS011;69059;52.218;5.172;2023-06-26T07:20:00;8.25;;;2.80;;
65172;SDS011;69059;52.218;5.172;2023-06-26T07:22:30;5.13;;;2.72;;
65172;SDS011;69059;52.218;5.172;2023-06-26T07:24:58;4.53;;;2.60;;
65172;SDS011;69059;52.218;5.172;2023-06-26T07:27:27;5.65;;;2.88;;
65172;SDS011;69059;52.218;5.172;2023-06-26T07:29:55;8.88;;;2.50;;
65172;SDS011;69059;52.218;5.172;2023-06-26T07:32:23;7.43;;;2.70;;
65172;SDS011;69059;52.218;5.172;2023-06-26T07:34:51;5.40;;;2.25;;
65172;SDS011;69059;52.218;5.172;2023-06-26T07:37:19;7.82;;;2.60;;
65172;SDS011;69059;52.218;5.172;2023-06-26T07:39:47;8.48;;;2.78;;
65172;SDS011;69059;52.218;5.172;2023-06-26T07:42:15;7.85;;;2.50;;
65172;SDS011;69059;52.218;5.172;2023-06-26T07:44:44;10.40;;;2.13;;
65172;SDS011;69059;52.218;5.172;2023-06-26T07:47:12;8.73;;;2.42;;
65172;SDS011;69059;52.218;5.172;2023-06-26T07:49:40;5.03;;;2.15;;
65172;SDS011;69059;52.218;5.172;2023-06-26T07:52:08;6.20;;;2.35;;
65172;SDS011;69059;52.218;5.172;2023-06-26T07:54:37;6.60;;;2.38;;
65172;SDS011;69059;52.218;5.172;2023-06-26T07:57:05;5.95;;;2.30;;
65172;SDS011;69059;52.218;5.172;2023-06-26T07:59:35;5.70;;;2.13;;
65172;SDS011;69059;52.218;5.172;2023-06-26T08:02:04;6.25;;;2.33;;
65172;SDS011;69059;52.218;5.172;2023-06-26T08:04:33;7.63;;;2.10;;
65172;SDS011;69059;52.218;5.172;2023-06-26T08:07:01;6.93;;;2.38;;
65172;SDS011;69059;52.218;5.172;2023-06-26T08:09:30;7.93;;;2.35;;
65172;SDS011;69059;52.218;5.172;2023-06-26T08:14:26;10.63;;;2.10;;
65172;SDS011;69059;52.218;5.172;2023-06-26T08:16:54;9.70;;;2.78;;
65172;SDS011;69059;52.218;5.172;2023-06-26T08:19:23;9.00;;;2.10;;
65172;SDS011;69059;52.218;5.172;2023-06-26T08:21:51;7.97;;;2.10;;
65172;SDS011;69059;52.218;5.172;2023-06-26T08:24:19;6.30;;;1.83;;
65172;SDS011;69059;52.218;5.172;2023-06-26T08:26:47;5.18;;;2.20;;
65172;SDS011;69059;52.218;5.172;2023-06-26T08:29:15;4.50;;;1.88;;
65172;SDS011;69059;52.218;5.172;2023-06-26T08:31:43;4.38;;;1.80;;
65172;SDS011;69059;52.218;5.172;2023-06-26T08:34:11;6.32;;;1.60;;
65172;SDS011;69059;52.218;5.172;2023-06-26T08:36:40;7.75;;;1.90;;
65172;SDS011;69059;52.218;5.172;2023-06-26T08:39:08;6.97;;;1.85;;
65172;SDS011;69059;52.218;5.172;2023-06-26T08:41:36;4.53;;;1.92;;
65172;SDS011;69059;52.218;5.172;2023-06-26T08:46:32;4.85;;;2.10;;
65172;SDS011;69059;52.218;5.172;2023-06-26T08:49:01;3.97;;;1.60;;
65172;SDS011;69059;52.218;5.172;2023-06-26T08:51:42;8.00;;;1.90;;
65172;SDS011;69059;52.218;5.172;2023-06-26T08:54:16;6.63;;;1.77;;
65172;SDS011;69059;52.218;5.172;2023-06-26T08:56:49;7.85;;;2.03;;
65172;SDS011;69059;52.218;5.172;2023-06-26T08:59:17;5.78;;;1.85;;
65172;SDS011;69059;52.218;5.172;2023-06-26T09:01:46;4.15;;;1.60;;
65172;SDS011;69059;52.218;5.172;2023-06-26T09:04:14;6.20;;;1.85;;
65172;SDS011;69059;52.218;5.172;2023-06-26T09:06:43;7.40;;;1.92;;
65172;SDS011;69059;52.218;5.172;2023-06-26T09:09:12;6.68;;;1.90;;
65172;SDS011;69059;52.218;5.172;2023-06-26T09:11:40;7.65;;;2.08;;
65172;SDS011;69059;52.218;5.172;2023-06-26T09:14:08;7.53;;;1.90;;
65172;SDS011;69059;52.218;5.172;2023-06-26T09:16:39;5.40;;;1.90;;
65172;SDS011;69059;52.218;5.172;2023-06-26T09:19:09;5.32;;;1.80;;
65172;SDS011;69059;52.218;5.172;2023-06-26T09:21:38;5.30;;;1.80;;
65172;SDS011;69059;52.218;5.172;2023-06-26T09:24:08;3.78;;;1.85;;
65172;SDS011;69059;52.218;5.172;2023-06-26T09:26:37;4.68;;;1.92;;
65172;SDS011;69059;52.218;5.172;2023-06-26T09:29:05;5.68;;;2.00;;
65172;SDS011;69059;52.218;5.172;2023-06-26T09:31:35;4.32;;;1.45;;
65172;SDS011;69059;52.218;5.172;2023-06-26T09:34:07;3.42;;;1.77;;
65172;SDS011;69059;52.218;5.172;2023-06-26T09:36:35;5.57;;;1.67;;
65172;SDS011;69059;52.218;5.172;2023-06-26T09:39:06;3.60;;;1.55;;
65172;SDS011;69059;52.218;5.172;2023-06-26T09:41:38;5.22;;;1.52;;
65172;SDS011;69059;52.218;5.172;2023-06-26T09:44:10;5.38;;;1.90;;
65172;SDS011;69059;52.218;5.172;2023-06-26T09:46:38;10.95;;;1.70;;
65172;SDS011;69059;52.218;5.172;2023-06-26T09:49:07;3.92;;;1.60;;
65172;SDS011;69059;52.218;5.172;2023-06-26T09:51:38;7.32;;;1.75;;
65172;SDS011;69059;52.218;5.172;2023-06-26T09:54:08;5.47;;;1.67;;
65172;SDS011;69059;52.218;5.172;2023-06-26T09:56:36;7.03;;;1.40;;
65172;SDS011;69059;52.218;5.172;2023-06-26T09:59:05;4.45;;;1.50;;
65172;SDS011;69059;52.218;5.172;2023-06-26T10:01:36;6.15;;;1.70;;
65172;SDS011;69059;52.218;5.172;2023-06-26T10:04:07;3.03;;;1.27;;
65172;SDS011;69059;52.218;5.172;2023-06-26T10:06:36;6.15;;;1.40;;
65172;SDS011;69059;52.218;5.172;2023-06-26T10:09:06;4.13;;;1.27;;
65172;SDS011;69059;52.218;5.172;2023-06-26T10:11:40;5.15;;;1.30;;
65172;SDS011;69059;52.218;5.172;2023-06-26T10:14:12;6.50;;;1.70;;
65172;SDS011;69059;52.218;5.172;2023-06-26T10:16:43;4.10;;;1.50;;
65172;SDS011;69059;52.218;5.172;2023-06-26T10:19:13;5.93;;;1.33;;
65172;SDS011;69059;52.218;5.172;2023-06-26T10:21:50;5.63;;;1.35;;
65172;SDS011;69059;52.218;5.172;2023-06-26T10:24:19;3.45;;;1.50;;
65172;SDS011;69059;52.218;5.172;2023-06-26T10:26:50;4.20;;;1.27;;
65172;SDS011;69059;52.218;5.172;2023-06-26T10:29:24;4.18;;;1.25;;
65172;SDS011;69059;52.218;5.172;2023-06-26T10:31:56;4.65;;;1.50;;
65172;SDS011;69059;52.218;5.172;2023-06-26T10:34:29;4.18;;;1.65;;
65172;SDS011;69059;52.218;5.172;2023-06-26T10:37:01;2.35;;;1.17;;
65172;SDS011;69059;52.218;5.172;2023-06-26T10:39:46;4.00;;;1.30;;
65172;SDS011;69059;52.218;5.172;2023-06-26T10:42:17;7.07;;;1.60;;
65172;SDS011;69059;52.218;5.172;2023-06-26T10:44:46;5.32;;;1.40;;
65172;SDS011;69059;52.218;5.172;2023-06-26T10:47:28;5.50;;;1.15;;
65172;SDS011;69059;52.218;5.172;2023-06-26T10:50:10;4.53;;;1.08;;
65172;SDS011;69059;52.218;5.172;2023-06-26T10:55:54;3.90;;;1.38;;
65172;SDS011;69059;52.218;5.172;2023-06-26T10:58:29;3.78;;;1.30;;
65172;SDS011;69059;52.218;5.172;2023-06-26T11:01:18;3.28;;;1.40;;
65172;SDS011;69059;52.218;5.172;2023-06-26T11:03:48;2.30;;;1.10;;
65172;SDS011;69059;52.218;5.172;2023-06-26T11:06:30;5.50;;;1.40;;
65172;SDS011;69059;52.218;5.172;2023-06-26T11:08:59;3.53;;;1.45;;
65172;SDS011;69059;52.218;5.172;2023-06-26T11:14:36;6.32;;;1.40;;
65172;SDS011;69059;52.218;5.172;2023-06-26T11:17:04;3.75;;;1.15;;
65172;SDS011;69059;52.218;5.172;2023-06-26T11:24:31;4.35;;;1.27;;
65172;SDS011;69059;52.218;5.172;2023-06-26T11:27:00;5.68;;;1.50;;
65172;SDS011;69059;52.218;5.172;2023-06-26T11:29:30;5.07;;;1.60;;
65172;SDS011;69059;52.218;5.172;2023-06-26T11:32:02;4.28;;;1.30;;
65172;SDS011;69059;52.218;5.172;2023-06-26T11:34:33;4.30;;;1.20;;
65172;SDS011;69059;52.218;5.172;2023-06-26T11:37:01;3.85;;;1.17;;
65172;SDS011;69059;52.218;5.172;2023-06-26T11:39:30;2.40;;;1.02;;
65172;SDS011;69059;52.218;5.172;2023-06-26T11:41:59;2.45;;;1.10;;
65172;SDS011;69059;52.218;5.172;2023-06-26T11:44:31;3.75;;;1.00;;
65172;SDS011;69059;52.218;5.172;2023-06-26T11:46:59;3.05;;;1.02;;
65172;SDS011;69059;52.218;5.172;2023-06-26T11:49:28;4.22;;;1.30;;
65172;SDS011;69059;52.218;5.172;2023-06-26T11:51:56;9.98;;;1.20;;
65172;SDS011;69059;52.218;5.172;2023-06-26T11:54:25;4.22;;;1.25;;
65172;SDS011;69059;52.218;5.172;2023-06-26T11:56:54;7.07;;;1.40;;
65172;SDS011;69059;52.218;5.172;2023-06-26T11:59:36;5.45;;;1.30;;
65172;SDS011;69059;52.218;5.172;2023-06-26T12:02:06;3.05;;;1.00;;
65172;SDS011;69059;52.218;5.172;2023-06-26T12:04:36;4.55;;;1.08;;
65172;SDS011;69059;52.218;5.172;2023-06-26T12:07:07;3.13;;;0.98;;
65172;SDS011;69059;52.218;5.172;2023-06-26T12:09:39;3.05;;;1.10;;
65172;SDS011;69059;52.218;5.172;2023-06-26T12:12:08;4.28;;;1.13;;
65172;SDS011;69059;52.218;5.172;2023-06-26T12:14:37;2.83;;;1.02;;
65172;SDS011;69059;52.218;5.172;2023-06-26T12:17:08;2.33;;;0.90;;
65172;SDS011;69059;52.218;5.172;2023-06-26T12:19:39;3.33;;;0.93;;
65172;SDS011;69059;52.218;5.172;2023-06-26T12:22:08;4.35;;;1.25;;
65172;SDS011;69059;52.218;5.172;2023-06-26T12:24:36;4.80;;;1.10;;
65172;SDS011;69059;52.218;5.172;2023-06-26T12:27:07;4.68;;;1.25;;
65172;SDS011;69059;52.218;5.172;2023-06-26T12:29:37;2.75;;;0.98;;
65172;SDS011;69059;52.218;5.172;2023-06-26T12:32:08;4.38;;;1.20;;
65172;SDS011;69059;52.218;5.172;2023-06-26T12:34:39;6.82;;;1.27;;
65172;SDS011;69059;52.218;5.172;2023-06-26T12:37:07;4.47;;;1.38;;
65172;SDS011;69059;52.218;5.172;2023-06-26T12:39:45;4.30;;;1.17;;
65172;SDS011;69059;52.218;5.172;2023-06-26T12:42:16;3.20;;;1.08;;
65172;SDS011;69059;52.218;5.172;2023-06-26T12:44:45;6.35;;;1.10;;
65172;SDS011;69059;52.218;5.172;2023-06-26T12:47:13;5.13;;;1.20;;
65172;SDS011;69059;52.218;5.172;2023-06-26T12:49:44;6.28;;;1.15;;
65172;SDS011;69059;52.218;5.172;2023-06-26T12:52:13;5.75;;;1.05;;
65172;SDS011;69059;52.218;5.172;2023-06-26T12:54:42;4.97;;;1.20;;
65172;SDS011;69059;52.218;5.172;2023-06-26T12:57:13;3.65;;;1.25;;
65172;SDS011;69059;52.218;5.172;2023-06-26T12:59:44;2.63;;;1.00;;
65172;SDS011;69059;52.218;5.172;2023-06-26T13:02:12;4.95;;;1.20;;
65172;SDS011;69059;52.218;5.172;2023-06-26T13:07:09;2.47;;;1.00;;
65172;SDS011;69059;52.218;5.172;2023-06-26T13:09:38;3.65;;;1.33;;
65172;SDS011;69059;52.218;5.172;2023-06-26T13:12:07;3.00;;;1.10;;
65172;SDS011;69059;52.218;5.172;2023-06-26T13:14:36;4.53;;;1.25;;
65172;SDS011;69059;52.218;5.172;2023-06-26T13:17:04;4.05;;;1.40;;
65172;SDS011;69059;52.218;5.172;2023-06-26T13:19:35;3.38;;;1.00;;
65172;SDS011;69059;52.218;5.172;2023-06-26T13:24:32;3.63;;;1.17;;
65172;SDS011;69059;52.218;5.172;2023-06-26T13:27:00;5.00;;;1.23;;
65172;SDS011;69059;52.218;5.172;2023-06-26T13:29:28;5.28;;;1.33;;
65172;SDS011;69059;52.218;5.172;2023-06-26T13:31:56;4.03;;;1.35;;
65172;SDS011;69059;52.218;5.172;2023-06-26T13:34:24;3.75;;;1.10;;
65172;SDS011;69059;52.218;5.172;2023-06-26T13:36:54;5.00;;;1.40;;
65172;SDS011;69059;52.218;5.172;2023-06-26T13:39:22;2.83;;;1.10;;
65172;SDS011;69059;52.218;5.172;2023-06-26T13:41:51;5.15;;;1.20;;
65172;SDS011;69059;52.218;5.172;2023-06-26T13:44:19;2.95;;;1.13;;
65172;SDS011;69059;52.218;5.172;2023-06-26T13:49:35;2.45;;;1.15;;
65172;SDS011;69059;52.218;5.172;2023-06-26T13:52:03;2.95;;;1.10;;
65172;SDS011;69059;52.218;5.172;2023-06-26T13:54:33;6.47;;;1.00;;
65172;SDS011;69059;52.218;5.172;2023-06-26T13:57:04;3.80;;;1.15;;
65172;SDS011;69059;52.218;5.172;2023-06-26T13:59:32;14.93;;;1.48;;
65172;SDS011;69059;52.218;5.172;2023-06-26T14:02:00;4.93;;;1.48;;
65172;SDS011;69059;52.218;5.172;2023-06-26T14:06:56;2.95;;;1.00;;
65172;SDS011;69059;52.218;5.172;2023-06-26T14:11:52;5.93;;;1.00;;
65172;SDS011;69059;52.218;5.172;2023-06-26T14:14:21;4.75;;;1.10;;
65172;SDS011;69059;52.218;5.172;2023-06-26T14:16:49;4.20;;;1.10;;
65172;SDS011;69059;52.218;5.172;2023-06-26T14:19:16;4.07;;;1.15;;
65172;SDS011;69059;52.218;5.172;2023-06-26T14:24:12;3.88;;;1.10;;
65172;SDS011;69059;52.218;5.172;2023-06-26T14:26:40;4.60;;;1.80;;
65172;SDS011;69059;52.218;5.172;2023-06-26T14:29:08;5.82;;;1.10;;
65172;SDS011;69059;52.218;5.172;2023-06-26T14:31:37;3.00;;;1.10;;
65172;SDS011;69059;52.218;5.172;2023-06-26T14:34:05;2.65;;;1.15;;
65172;SDS011;69059;52.218;5.172;2023-06-26T14:36:33;4.97;;;1.27;;
65172;SDS011;69059;52.218;5.172;2023-06-26T14:39:00;4.57;;;1.30;;
65172;SDS011;69059;52.218;5.172;2023-06-26T14:41:29;5.20;;;1.13;;
65172;SDS011;69059;52.218;5.172;2023-06-26T14:43:58;2.92;;;1.08;;
65172;SDS011;69059;52.218;5.172;2023-06-26T14:46:26;4.10;;;1.40;;
65172;SDS011;69059;52.218;5.172;2023-06-26T14:48:56;4.38;;;1.20;;
65172;SDS011;69059;52.218;5.172;2023-06-26T14:51:24;9.30;;;1.40;;
65172;SDS011;69059;52.218;5.172;2023-06-26T14:53:52;3.28;;;1.10;;
65172;SDS011;69059;52.218;5.172;2023-06-26T14:58:48;3.63;;;1.27;;
65172;SDS011;69059;52.218;5.172;2023-06-26T15:01:17;6.63;;;1.30;;
65172;SDS011;69059;52.218;5.172;2023-06-26T15:03:46;7.50;;;1.50;;
65172;SDS011;69059;52.218;5.172;2023-06-26T15:06:15;4.28;;;1.20;;
65172;SDS011;69059;52.218;5.172;2023-06-26T15:08:43;4.43;;;1.02;;
65172;SDS011;69059;52.218;5.172;2023-06-26T15:11:11;2.55;;;1.13;;
65172;SDS011;69059;52.218;5.172;2023-06-26T15:13:39;3.63;;;1.23;;
65172;SDS011;69059;52.218;5.172;2023-06-26T15:16:07;3.05;;;1.10;;
65172;SDS011;69059;52.218;5.172;2023-06-26T15:18:35;4.22;;;1.30;;
65172;SDS011;69059;52.218;5.172;2023-06-26T15:21:03;3.85;;;1.30;;
65172;SDS011;69059;52.218;5.172;2023-06-26T15:23:32;3.17;;;1.42;;
65172;SDS011;69059;52.218;5.172;2023-06-26T15:26:00;3.40;;;1.33;;
65172;SDS011;69059;52.218;5.172;2023-06-26T15:28:28;3.15;;;1.00;;
65172;SDS011;69059;52.218;5.172;2023-06-26T15:30:56;2.10;;;0.93;;
65172;SDS011;69059;52.218;5.172;2023-06-26T15:33:24;4.15;;;1.10;;
65172;SDS011;69059;52.218;5.172;2023-06-26T15:35:52;4.65;;;1.15;;
65172;SDS011;69059;52.218;5.172;2023-06-26T15:38:20;2.92;;;0.90;;
65172;SDS011;69059;52.218;5.172;2023-06-26T15:40:49;3.72;;;1.17;;
65172;SDS011;69059;52.218;5.172;2023-06-26T15:43:17;2.08;;;1.02;;
65172;SDS011;69059;52.218;5.172;2023-06-26T15:45:45;2.83;;;1.00;;
65172;SDS011;69059;52.218;5.172;2023-06-26T15:48:12;2.38;;;0.90;;
65172;SDS011;69059;52.218;5.172;2023-06-26T15:50:40;3.15;;;0.93;;